createdAt,value
2022-12-19T00:00:31.395Z,70.53
2022-12-19T00:03:00.958Z,70.23
2022-12-19T00:05:29.314Z,70.87
2022-12-19T00:07:57.259Z,70.57
2022-12-19T00:10:27.121Z,69.98
2022-12-19T00:12:54.989Z,71.23
2022-12-19T00:15:23.463Z,69.77
2022-12-19T00:17:51.282Z,70.59
2022-12-19T00:20:20.633Z,70.83
2022-12-19T00:22:48.534Z,70.86
2022-12-19T00:25:27.029Z,71.17
2022-12-19T00:27:55.701Z,71.37
2022-12-19T00:30:33.950Z,71.19
2022-12-19T00:33:02.653Z,71.15
2022-12-19T00:35:32.300Z,71.68
2022-12-19T00:38:00.319Z,71.86
2022-12-19T00:40:28.158Z,71.32
2022-12-19T00:42:56.454Z,72.46
2022-12-19T00:45:26.672Z,71.48
2022-12-19T00:47:57.640Z,72.65
2022-12-19T00:50:25.486Z,72.09
2022-12-19T00:52:54.806Z,72.37
2022-12-19T00:55:23.065Z,71.89
2022-12-19T00:57:51.711Z,72.96
2022-12-19T01:00:22.569Z,72.76
2022-12-19T01:02:53.892Z,72.33
2022-12-19T01:05:21.653Z,72.66
2022-12-19T01:07:50.671Z,72.95
2022-12-19T01:10:20.182Z,73.38
2022-12-19T01:12:48.729Z,72.88
2022-12-19T01:15:18.907Z,73.52
2022-12-19T01:17:47.244Z,73.48
2022-12-19T01:20:17.576Z,74.30
2022-12-19T01:22:48.591Z,73.69
2022-12-19T01:25:17.343Z,74.28
2022-12-19T01:27:46.585Z,73.75
2022-12-19T01:30:15.420Z,73.78
2022-12-19T01:32:43.729Z,74.50
2022-12-19T01:35:20.638Z,74.26
2022-12-19T01:37:50.691Z,74.29
2022-12-19T01:40:19.049Z,74.62
2022-12-19T01:42:49.467Z,74.00
2022-12-19T01:45:34.482Z,74.43
2022-12-19T01:48:09.466Z,73.92
2022-12-19T01:50:51.433Z,73.63
2022-12-19T01:53:33.373Z,74.94
2022-12-19T01:56:08.953Z,74.69
2022-12-19T01:58:41.242Z,74.80
2022-12-19T02:01:09.531Z,74.24
2022-12-19T02:03:40.705Z,74.88
2022-12-19T02:06:10.527Z,74.03
2022-12-19T02:08:39.200Z,74.60
2022-12-19T02:11:07.148Z,74.12
2022-12-19T02:13:38.865Z,74.26
2022-12-19T02:16:22.435Z,75.00
2022-12-19T02:18:59.613Z,73.56
2022-12-19T02:21:41.835Z,74.03
2022-12-19T02:24:47.736Z,74.33
2022-12-19T02:27:39.842Z,74.23
2022-12-19T02:30:14.314Z,74.24
2022-12-19T02:33:03.716Z,73.88
2022-12-19T02:35:37.034Z,75.06
2022-12-19T02:38:16.003Z,74.42
2022-12-19T02:40:51.910Z,74.83
2022-12-19T02:43:25.653Z,74.68
2022-12-19T02:45:55.292Z,74.64
2022-12-19T02:48:25.774Z,74.15
2022-12-19T02:50:53.698Z,74.60
2022-12-19T02:53:23.583Z,74.50
2022-12-19T02:56:10.343Z,73.99
2022-12-19T02:58:51.260Z,74.26
2022-12-19T03:01:35.891Z,74.50
2022-12-19T03:04:25.019Z,73.90
2022-12-19T03:06:57.035Z,73.90
2022-12-19T03:09:38.788Z,73.92
2022-12-19T03:12:17.054Z,74.18
2022-12-19T03:14:47.648Z,74.39
2022-12-19T03:17:16.372Z,74.54
2022-12-19T03:19:48.761Z,73.83
2022-12-19T03:22:17.498Z,74.24
2022-12-19T03:24:45.411Z,74.14
2022-12-19T03:27:22.255Z,74.93
2022-12-19T03:29:55.751Z,74.49
2022-12-19T03:32:26.517Z,74.80
2022-12-19T03:35:00.603Z,73.79
2022-12-19T03:37:33.514Z,74.69
2022-12-19T03:40:04.323Z,74.29
2022-12-19T03:42:52.554Z,74.39
2022-12-19T03:45:27.523Z,74.24
2022-12-19T03:48:01.747Z,73.91
2022-12-19T03:50:40.423Z,74.26
2022-12-19T03:53:19.685Z,74.08
2022-12-19T03:55:55.096Z,73.73
2022-12-19T03:58:31.504Z,73.72
2022-12-19T04:01:01.353Z,74.21
2022-12-19T04:03:31.440Z,73.83
2022-12-19T04:06:05.651Z,74.23
2022-12-19T04:08:35.713Z,74.53
2022-12-19T04:11:10.553Z,74.01
2022-12-19T04:13:43.337Z,74.62
2022-12-19T04:16:19.724Z,75.02
2022-12-19T04:18:55.033Z,74.10
2022-12-19T04:21:32.952Z,74.62
2022-12-19T04:24:07.043Z,74.27
2022-12-19T04:26:41.002Z,74.16
2022-12-19T04:29:10.581Z,74.59
2022-12-19T04:31:40.033Z,73.95
2022-12-19T04:34:08.073Z,74.49
2022-12-19T04:36:37.956Z,74.37
2022-12-19T04:39:06.611Z,73.92
2022-12-19T04:41:34.661Z,74.17
2022-12-19T04:44:05.934Z,74.18
2022-12-19T04:46:34.218Z,74.42
2022-12-19T04:49:04.981Z,74.84
2022-12-19T04:51:32.863Z,74.33
2022-12-19T04:54:02.514Z,74.22
2022-12-19T04:56:30.404Z,73.96
2022-12-19T04:58:59.628Z,73.87
2022-12-19T05:01:27.833Z,74.25
2022-12-19T05:04:01.323Z,74.26
2022-12-19T05:06:32.573Z,74.00
2022-12-19T05:09:02.396Z,73.54
2022-12-19T05:11:32.298Z,74.46
2022-12-19T05:14:00.296Z,74.23
2022-12-19T05:16:28.206Z,74.48
2022-12-19T05:18:56.717Z,74.03
2022-12-19T05:21:25.258Z,74.32
2022-12-19T05:23:53.051Z,73.85
2022-12-19T05:26:22.583Z,74.00
2022-12-19T05:28:50.896Z,73.86
2022-12-19T05:31:21.585Z,74.11
2022-12-19T05:33:50.907Z,73.79
2022-12-19T05:36:20.155Z,74.24
2022-12-19T05:38:48.740Z,73.65
2022-12-19T05:41:20.260Z,74.11
2022-12-19T05:43:56.050Z,73.65
2022-12-19T05:46:25.485Z,73.50
2022-12-19T05:48:53.409Z,73.40
2022-12-19T05:51:21.611Z,73.87
2022-12-19T05:53:49.965Z,73.63
2022-12-19T05:56:19.529Z,73.88
2022-12-19T05:58:49.866Z,73.06
2022-12-19T06:01:20.476Z,73.43
2022-12-19T06:03:48.678Z,73.45
2022-12-19T06:06:29.861Z,73.37
2022-12-19T06:09:02.201Z,72.85
2022-12-19T06:11:30.546Z,73.76
2022-12-19T06:14:00.292Z,73.18
2022-12-19T06:16:31.069Z,73.22
2022-12-19T06:18:59.280Z,73.30
2022-12-19T06:21:27.549Z,73.44
2022-12-19T06:23:56.555Z,73.21
2022-12-19T06:26:24.974Z,72.97
2022-12-19T06:28:54.663Z,72.96
2022-12-19T06:31:26.295Z,73.14
2022-12-19T06:33:56.179Z,72.89
2022-12-19T06:36:25.377Z,72.67
2022-12-19T06:38:56.475Z,72.70
2022-12-19T06:41:42.307Z,72.48
2022-12-19T06:44:14.357Z,72.79
2022-12-19T06:46:43.950Z,72.38
2022-12-19T06:49:13.511Z,72.56
2022-12-19T06:51:41.615Z,71.91
2022-12-19T06:54:11.581Z,72.18
2022-12-19T06:56:41.315Z,72.31
2022-12-19T06:59:13.221Z,72.43
2022-12-19T07:01:53.824Z,72.31
2022-12-19T07:04:26.719Z,71.81
2022-12-19T07:06:54.511Z,72.40
2022-12-19T07:09:22.684Z,72.13
2022-12-19T07:11:50.942Z,71.96
2022-12-19T07:14:19.028Z,71.78
2022-12-19T07:16:49.823Z,72.21
2022-12-19T07:19:18.507Z,72.20
2022-12-19T07:21:46.455Z,71.89
2022-12-19T07:24:15.901Z,71.88
2022-12-19T07:26:45.177Z,71.46
2022-12-19T07:29:14.246Z,71.44
2022-12-19T07:31:41.948Z,71.70
2022-12-19T07:34:11.500Z,71.54
2022-12-19T07:36:39.221Z,71.44
2022-12-19T07:39:07.546Z,71.46
2022-12-19T07:41:38.020Z,71.51
2022-12-19T07:44:06.760Z,71.36
2022-12-19T07:46:35.562Z,71.33
2022-12-19T07:49:03.712Z,71.44
2022-12-19T07:51:33.433Z,71.43
2022-12-19T07:54:01.531Z,71.46
2022-12-19T07:56:29.767Z,71.10
2022-12-19T07:58:57.877Z,71.35
2022-12-19T08:01:28.285Z,71.09
2022-12-19T08:03:57.105Z,71.55
2022-12-19T08:06:25.102Z,71.74
2022-12-19T08:08:54.225Z,71.50
2022-12-19T08:11:27.585Z,71.42
2022-12-19T08:13:56.254Z,71.37
2022-12-19T08:16:26.674Z,71.61
2022-12-19T08:18:56.105Z,71.76
2022-12-19T08:21:25.093Z,72.12
2022-12-19T08:23:54.681Z,71.78
2022-12-19T08:26:26.417Z,71.67
2022-12-19T08:28:55.790Z,71.65
2022-12-19T08:31:25.382Z,71.46
2022-12-19T08:33:53.387Z,71.63
2022-12-19T08:36:21.168Z,71.52
2022-12-19T08:38:50.460Z,71.93
2022-12-19T08:41:20.532Z,71.44
2022-12-19T08:43:50.415Z,71.59
2022-12-19T08:46:19.255Z,71.61
2022-12-19T08:48:47.470Z,71.30
2022-12-19T08:51:17.482Z,71.83
2022-12-19T08:53:46.492Z,71.47
2022-12-19T08:56:16.644Z,71.26
2022-12-19T08:58:46.992Z,71.73
2022-12-19T09:01:19.146Z,71.54
2022-12-19T09:04:29.863Z,71.65
2022-12-19T09:06:36.657Z,71.30
2022-12-19T09:09:05.597Z,71.15
2022-12-19T09:11:33.876Z,71.65
2022-12-19T09:14:05.925Z,71.54
2022-12-19T09:16:33.679Z,71.53
2022-12-19T09:19:01.756Z,71.69
2022-12-19T09:21:30.255Z,71.30
2022-12-19T09:24:07.134Z,71.23
2022-12-19T09:26:36.435Z,71.23
2022-12-19T09:29:12.728Z,71.33
2022-12-19T09:31:48.116Z,71.39
2022-12-19T09:34:19.789Z,71.42
2022-12-19T09:36:50.417Z,71.55
2022-12-19T09:39:19.004Z,71.60
2022-12-19T09:42:05.871Z,71.48
2022-12-19T09:44:59.168Z,71.25
2022-12-19T09:47:31.854Z,71.37
2022-12-19T09:50:00.864Z,71.16
2022-12-19T09:52:34.170Z,70.40
2022-12-19T09:55:06.723Z,70.68
2022-12-19T09:57:41.913Z,70.69
2022-12-19T10:00:16.858Z,70.81
2022-12-19T10:02:51.558Z,70.57
2022-12-19T10:06:07.767Z,70.35
2022-12-19T10:08:19.119Z,70.34
2022-12-19T10:12:37.304Z,70.36
2022-12-19T10:14:02.817Z,69.95
2022-12-19T10:17:01.756Z,70.17
2022-12-19T10:19:43.917Z,70.07
2022-12-19T10:22:25.457Z,69.91
2022-12-19T10:25:13.412Z,69.83
2022-12-19T10:27:59.288Z,69.79
2022-12-19T10:30:31.199Z,69.54
2022-12-19T10:33:07.496Z,69.49
2022-12-19T10:35:44.597Z,69.79
2022-12-19T10:38:24.083Z,69.59
2022-12-19T10:40:55.744Z,69.35
2022-12-19T10:43:35.583Z,68.88
2022-12-19T10:46:14.746Z,68.88
2022-12-19T10:48:44.943Z,68.50
2022-12-19T10:51:14.660Z,68.77
2022-12-19T10:53:42.949Z,68.07
2022-12-19T10:56:24.596Z,68.21
2022-12-19T10:58:57.847Z,68.06
2022-12-19T11:01:28.523Z,67.87
2022-12-19T11:04:28.286Z,67.52
2022-12-19T11:07:19.658Z,67.50
2022-12-19T11:09:59.215Z,67.16
2022-12-19T11:16:57.576Z,66.93
2022-12-19T11:18:25.643Z,66.87
2022-12-19T11:24:36.487Z,66.16
2022-12-19T11:29:29.801Z,66.21
2022-12-19T11:29:55.843Z,66.15
2022-12-19T11:30:08.862Z,66.29
2022-12-19T11:32:43.656Z,65.57
2022-12-19T11:35:20.940Z,65.59
2022-12-19T11:37:57.221Z,65.28
2022-12-19T11:40:34.155Z,65.16
2022-12-19T11:46:01.468Z,64.70
2022-12-19T11:48:38.796Z,64.17
2022-12-19T11:51:18.194Z,64.44
2022-12-19T11:53:54.801Z,64.32
2022-12-19T11:56:25.469Z,64.08
2022-12-19T11:58:59.097Z,64.47
2022-12-19T12:01:42.731Z,63.59
2022-12-19T12:04:28.191Z,64.27
2022-12-19T12:06:59.226Z,63.96
2022-12-19T12:13:18.454Z,63.13
2022-12-19T12:22:00.155Z,63.48
2022-12-19T12:25:53.658Z,63.57
2022-12-19T12:30:58.974Z,62.43
2022-12-19T12:31:01.689Z,62.58
2022-12-19T12:31:08.851Z,62.82
2022-12-19T12:31:46.187Z,61.95
2022-12-19T12:31:50.445Z,62.54
2022-12-19T12:35:46.565Z,62.85
2022-12-19T12:39:29.882Z,62.41
2022-12-19T12:42:10.499Z,62.00
2022-12-19T12:44:45.597Z,62.21
2022-12-19T12:47:18.985Z,61.78
2022-12-19T12:49:50.267Z,61.64
2022-12-19T12:52:21.120Z,61.59
2022-12-19T12:54:50.679Z,61.49
2022-12-19T12:57:36.628Z,61.55
2022-12-19T13:00:26.225Z,61.54
2022-12-19T13:02:58.562Z,61.04
2022-12-19T13:05:42.754Z,61.83
2022-12-19T13:08:32.254Z,61.95
2022-12-19T13:11:03.425Z,60.77
2022-12-19T13:13:52.260Z,60.88
2022-12-19T13:16:51.634Z,60.88
2022-12-19T13:19:27.836Z,60.95
2022-12-19T13:22:19.582Z,60.95
2022-12-19T13:24:49.962Z,60.60
2022-12-19T13:27:35.602Z,61.00
2022-12-19T13:30:20.700Z,60.49
2022-12-19T13:33:09.398Z,60.74
2022-12-19T13:37:17.687Z,60.74
2022-12-19T13:39:48.494Z,60.82
2022-12-19T13:41:45.261Z,60.54
2022-12-19T13:44:13.059Z,60.42
2022-12-19T13:46:43.702Z,60.21
2022-12-19T13:49:16.750Z,60.25
2022-12-19T13:51:48.286Z,59.97
2022-12-19T13:54:24.674Z,60.44
2022-12-19T13:56:53.565Z,59.87
2022-12-19T13:59:23.299Z,59.73
2022-12-19T14:01:54.667Z,59.89
2022-12-19T14:04:30.715Z,59.85
2022-12-19T14:07:02.338Z,60.33
2022-12-19T14:11:26.292Z,59.63
2022-12-19T14:13:53.858Z,59.69
2022-12-19T14:15:34.517Z,60.21
2022-12-19T14:18:44.375Z,60.12
2022-12-19T14:22:11.605Z,59.60
2022-12-19T14:24:16.479Z,60.04
2022-12-19T14:28:19.380Z,59.68
2022-12-19T14:30:29.164Z,59.70
2022-12-19T14:33:39.411Z,59.67
2022-12-19T14:36:07.778Z,59.38
2022-12-19T14:39:19.620Z,59.12
2022-12-19T14:41:07.585Z,59.81
2022-12-19T14:43:59.129Z,59.65
2022-12-19T14:53:17.457Z,59.13
2022-12-19T14:54:02.816Z,59.17
2022-12-19T14:54:39.878Z,59.75
2022-12-19T14:56:19.579Z,59.49
2022-12-19T14:58:54.409Z,58.78
2022-12-19T15:01:26.505Z,59.29
2022-12-19T15:04:51.894Z,59.67
2022-12-19T15:07:06.812Z,59.30
2022-12-19T15:11:06.610Z,59.07
2022-12-19T15:14:49.150Z,59.42
2022-12-19T15:15:54.896Z,59.85
2022-12-19T15:18:26.304Z,59.73
2022-12-19T15:20:56.338Z,59.75
2022-12-19T15:23:25.046Z,60.08
2022-12-19T15:26:10.195Z,59.44
2022-12-19T15:28:41.309Z,59.82
2022-12-19T15:31:19.515Z,59.69
2022-12-19T15:34:23.444Z,59.49
2022-12-19T15:36:35.367Z,59.38
2022-12-19T15:39:04.074Z,59.69
2022-12-19T15:41:33.357Z,59.47
2022-12-19T15:44:07.283Z,59.66
2022-12-19T15:46:35.269Z,59.40
2022-12-19T15:49:03.227Z,59.92
2022-12-19T15:51:30.998Z,60.00
2022-12-19T15:54:22.208Z,59.90
2022-12-19T15:56:52.028Z,59.86
2022-12-19T15:59:36.400Z,60.23
2022-12-19T16:02:16.748Z,59.85
2022-12-19T16:04:45.523Z,59.68
2022-12-19T16:07:17.049Z,59.89
2022-12-19T16:09:44.869Z,59.69
2022-12-19T16:12:17.375Z,59.71
2022-12-19T16:14:45.944Z,60.15
2022-12-19T16:17:19.969Z,59.49
2022-12-19T16:19:47.841Z,59.81
2022-12-19T16:22:22.067Z,59.84
2022-12-19T16:24:52.682Z,59.82
2022-12-19T16:27:25.694Z,59.88
2022-12-19T16:29:54.166Z,60.35
2022-12-19T16:32:24.759Z,60.50
2022-12-19T16:34:53.141Z,60.48
2022-12-19T16:37:22.835Z,60.23
2022-12-19T16:39:54.356Z,60.85
2022-12-19T16:42:23.562Z,60.69
2022-12-19T16:44:53.672Z,60.80
2022-12-19T16:47:21.666Z,60.53
2022-12-19T16:49:49.992Z,61.03
2022-12-19T16:52:18.428Z,60.64
2022-12-19T16:54:46.390Z,60.87
2022-12-19T16:57:21.270Z,60.53
2022-12-19T16:59:51.336Z,60.71
2022-12-19T17:05:33.288Z,60.59
2022-12-19T17:08:02.031Z,60.10
2022-12-19T17:10:32.596Z,60.53
2022-12-19T17:13:03.504Z,60.41
2022-12-19T17:15:36.515Z,60.15
2022-12-19T17:18:12.086Z,59.95
2022-12-19T17:20:43.960Z,60.14
2022-12-19T17:23:15.969Z,59.96
2022-12-19T17:25:44.189Z,60.64
2022-12-19T17:28:12.907Z,60.41
2022-12-19T17:30:44.774Z,60.52
2022-12-19T17:33:15.536Z,60.58
2022-12-19T17:35:45.124Z,60.24
2022-12-19T17:38:14.700Z,60.40
2022-12-19T17:40:43.124Z,60.79
2022-12-19T17:43:11.899Z,60.56
2022-12-19T17:45:41.226Z,60.56
2022-12-19T17:48:18.570Z,60.45
2022-12-19T17:50:46.838Z,60.75
2022-12-19T17:53:15.891Z,60.73
2022-12-19T17:55:44.349Z,60.85
2022-12-19T17:58:12.271Z,60.77
2022-12-19T18:00:41.824Z,60.89
2022-12-19T18:03:20.003Z,60.99
2022-12-19T18:05:50.048Z,61.08
2022-12-19T18:08:26.073Z,60.61
2022-12-19T18:10:55.136Z,61.63
2022-12-19T18:13:23.084Z,61.33
2022-12-19T18:15:51.828Z,61.32
2022-12-19T18:18:28.139Z,61.62
2022-12-19T18:20:56.538Z,61.30
2022-12-19T18:23:25.711Z,61.50
2022-12-19T18:26:00.838Z,61.28
2022-12-19T18:28:30.245Z,61.59
2022-12-19T18:31:02.306Z,61.71
2022-12-19T18:33:39.451Z,61.18
2022-12-19T18:36:08.612Z,61.41
2022-12-19T18:38:36.872Z,61.66
2022-12-19T18:41:07.919Z,61.40
2022-12-19T18:43:36.249Z,61.34
2022-12-19T18:46:04.346Z,61.55
2022-12-19T18:48:36.864Z,61.84
2022-12-19T18:51:06.598Z,61.29
2022-12-19T18:53:36.155Z,61.43
2022-12-19T18:56:06.484Z,61.44
2022-12-19T18:58:35.056Z,61.24
2022-12-19T19:01:04.746Z,61.69
2022-12-19T19:03:36.753Z,61.61
2022-12-19T19:06:06.616Z,61.15
2022-12-19T19:08:36.194Z,61.15
2022-12-19T19:11:04.064Z,61.05
2022-12-19T19:13:34.735Z,61.35
2022-12-19T19:16:05.618Z,60.93
2022-12-19T19:18:39.752Z,61.19
2022-12-19T19:21:10.991Z,60.95
2022-12-19T19:23:42.886Z,61.64
2022-12-19T19:26:10.785Z,61.25
2022-12-19T19:28:39.443Z,61.02
2022-12-19T19:31:10.390Z,61.02
2022-12-19T19:33:47.958Z,61.13
2022-12-19T19:36:19.405Z,61.14
2022-12-19T19:38:52.681Z,61.13
2022-12-19T19:41:21.160Z,61.57
2022-12-19T19:43:49.183Z,61.27
2022-12-19T19:46:17.302Z,60.73
2022-12-19T19:48:47.449Z,61.11
2022-12-19T19:51:17.203Z,60.63
2022-12-19T19:53:45.253Z,60.93
2022-12-19T19:56:13.644Z,60.86
2022-12-19T19:58:41.668Z,60.94
2022-12-19T20:01:11.331Z,60.60
2022-12-19T20:03:41.890Z,60.48
2022-12-19T20:06:15.509Z,60.77
2022-12-19T20:08:43.545Z,60.64
2022-12-19T20:11:11.744Z,60.61
2022-12-19T20:13:39.996Z,60.68
2022-12-19T20:16:09.799Z,61.19
2022-12-19T20:18:39.487Z,60.67
2022-12-19T20:21:12.732Z,60.73
2022-12-19T20:23:44.151Z,60.66
2022-12-19T20:26:15.583Z,60.37
2022-12-19T20:28:48.960Z,60.82
2022-12-19T20:31:18.678Z,60.37
2022-12-19T20:33:47.276Z,59.88
2022-12-19T20:36:15.757Z,59.98
2022-12-19T20:38:45.089Z,59.75
2022-12-19T20:41:13.478Z,59.56
2022-12-19T20:43:41.551Z,59.67
2022-12-19T20:46:11.989Z,59.52
2022-12-19T20:48:40.676Z,59.77
2022-12-19T20:51:10.053Z,59.80
2022-12-19T20:53:40.069Z,59.36
2022-12-19T20:56:13.904Z,59.40
2022-12-19T20:58:41.950Z,59.14
2022-12-19T21:01:13.026Z,58.82
2022-12-19T21:03:41.743Z,58.68
2022-12-19T21:06:14.977Z,59.29
2022-12-19T21:08:43.530Z,58.94
2022-12-19T21:11:14.372Z,59.22
2022-12-19T21:13:42.375Z,58.56
2022-12-19T21:16:13.015Z,58.78
2022-12-19T21:18:42.543Z,58.84
2022-12-19T21:21:13.684Z,58.37
2022-12-19T21:23:42.009Z,58.71
2022-12-19T21:26:10.568Z,57.87
2022-12-19T21:28:40.334Z,57.68
2022-12-19T21:31:12.903Z,57.97
2022-12-19T21:33:41.195Z,58.07
2022-12-19T21:36:10.219Z,57.97
2022-12-19T21:38:38.661Z,57.65
2022-12-19T21:41:08.481Z,57.40
2022-12-19T21:43:37.531Z,57.55
2022-12-19T21:46:09.795Z,57.85
2022-12-19T21:48:39.429Z,57.74
2022-12-19T21:51:07.552Z,57.58
2022-12-19T21:53:36.650Z,57.17
2022-12-19T21:56:15.624Z,57.83
2022-12-19T21:58:43.618Z,57.58
2022-12-19T22:01:15.977Z,57.84
2022-12-19T22:03:44.124Z,57.05
2022-12-19T22:06:20.971Z,57.56
2022-12-19T22:08:56.150Z,57.44
2022-12-19T22:11:25.922Z,57.63
2022-12-19T22:13:54.270Z,57.55
2022-12-19T22:16:23.751Z,57.43
2022-12-19T22:18:53.520Z,57.49
2022-12-19T22:21:25.467Z,57.20
2022-12-19T22:23:54.362Z,57.04
2022-12-19T22:26:24.559Z,57.12
2022-12-19T22:28:55.467Z,57.36
2022-12-19T22:31:26.109Z,57.29
2022-12-19T22:33:59.448Z,57.05
2022-12-19T22:36:31.523Z,56.76
2022-12-19T22:39:02.445Z,57.00
2022-12-19T22:41:30.675Z,56.77
2022-12-19T22:43:58.689Z,57.11
2022-12-19T22:46:31.206Z,57.35
2022-12-19T22:49:00.888Z,56.66
2022-12-19T22:51:30.558Z,56.55
2022-12-19T22:53:59.520Z,56.74
2022-12-19T22:56:29.592Z,56.53
2022-12-19T22:59:01.500Z,56.83
2022-12-19T23:01:32.864Z,56.54
2022-12-19T23:04:02.434Z,56.65
2022-12-19T23:06:34.159Z,56.81
2022-12-19T23:09:02.770Z,56.84
2022-12-19T23:11:36.217Z,56.44
2022-12-19T23:14:06.384Z,56.35
2022-12-19T23:16:36.408Z,56.10
2022-12-19T23:19:05.624Z,56.51
2022-12-19T23:21:34.193Z,56.61
2022-12-19T23:24:02.264Z,56.35
2022-12-19T23:26:35.695Z,57.00
2022-12-19T23:29:07.975Z,56.87
2022-12-19T23:31:40.349Z,56.59
2022-12-19T23:34:08.239Z,56.25
2022-12-19T23:39:24.309Z,56.34
2022-12-19T23:41:52.637Z,56.96
2022-12-19T23:44:22.931Z,56.55
2022-12-19T23:46:59.085Z,56.85
2022-12-19T23:49:30.500Z,56.73
2022-12-19T23:51:58.846Z,56.48
2022-12-19T23:54:26.878Z,56.26
2022-12-19T23:56:57.046Z,56.72
2022-12-19T23:59:25.395Z,56.46
